Time;durP1;ratioP1;P1;durP2;ratioP2;P2;SDS_P1;SDS_P2;PMS_P1;PMS_P2;Temp;Humidity;BMP_temperature;BMP_pressure;BME280_temperature;BME280_humidity;BME280_pressure;Samples;Min_cycle;Max_cycle;Signal;HPM_P1;HPM_P2
2023/07/12 00:01:55;;;;;;;1.50;0.80;;;;;;;;;;4836937;29;20053;-74
2023/07/12 00:04:26;;;;;;;2.55;0.77;;;;;;;;;;4819328;29;20054;-75
2023/07/12 00:06:58;;;;;;;1.35;0.50;;;;;;;;;;4836440;29;20065;-75
2023/07/12 00:09:29;;;;;;;0.82;0.40;;;;;;;;;;4836627;29;20506;-73
2023/07/12 00:11:58;;;;;;;1.65;0.47;;;;;;;;;;4819785;29;20057;-75
2023/07/12 00:14:29;;;;;;;3.53;0.50;;;;;;;;;;4836621;29;20057;-74
2023/07/12 00:16:59;;;;;;;0.57;0.57;;;;;;;;;;4836215;29;20062;-73
2023/07/12 00:19:29;;;;;;;1.27;0.80;;;;;;;;;;4835955;29;20419;-74
2023/07/12 00:22:02;;;;;;;2.50;1.13;;;;;;;;;;4836323;29;20049;-74
2023/07/12 00:24:34;;;;;;;1.58;0.60;;;;;;;;;;4836179;29;20062;-73
2023/07/12 00:27:09;;;;;;;1.00;0.70;;;;;;;;;;4836068;29;20514;-73
2023/07/12 00:29:39;;;;;;;1.15;0.50;;;;;;;;;;4819510;29;20053;-73
2023/07/12 00:32:10;;;;;;;1.70;0.80;;;;;;;;;;4837267;29;20541;-76
2023/07/12 00:34:41;;;;;;;2.53;0.65;;;;;;;;;;4836649;29;20064;-73
2023/07/12 00:37:15;;;;;;;3.05;0.68;;;;;;;;;;4836138;29;20077;-74
2023/07/12 00:39:45;;;;;;;2.70;0.60;;;;;;;;;;4836263;29;20057;-74
2023/07/12 00:42:23;;;;;;;1.05;0.43;;;;;;;;;;4818917;29;20065;-75
2023/07/12 00:44:58;;;;;;;0.70;0.60;;;;;;;;;;4835820;29;20538;-75
2023/07/12 00:47:32;;;;;;;2.30;0.52;;;;;;;;;;4835632;29;20057;-75
2023/07/12 00:50:14;;;;;;;1.85;0.60;;;;;;;;;;4835529;29;20061;-74
2023/07/12 00:52:48;;;;;;;3.22;0.73;;;;;;;;;;4835057;29;20046;-76
2023/07/12 00:56:10;;;;;;;4.95;0.77;;;;;;;;;;4836054;29;20042;-74
2023/07/12 00:58:47;;;;;;;1.52;0.88;;;;;;;;;;4796234;29;20553;-75
2023/07/12 01:01:18;;;;;;;3.83;0.77;;;;;;;;;;4835019;29;20050;-74
2023/07/12 01:03:49;;;;;;;1.98;1.02;;;;;;;;;;4819418;29;20065;-74
2023/07/12 01:06:21;;;;;;;3.08;0.77;;;;;;;;;;4835144;29;20053;-73
2023/07/12 01:08:57;;;;;;;4.03;0.65;;;;;;;;;;4834833;29;20038;-74
2023/07/12 01:11:29;;;;;;;2.58;0.50;;;;;;;;;;4831518;29;20054;-74
2023/07/12 01:14:00;;;;;;;2.67;0.77;;;;;;;;;;4815493;29;20096;-75
2023/07/12 01:16:30;;;;;;;3.22;1.02;;;;;;;;;;4832580;29;20069;-74
2023/07/12 01:19:01;;;;;;;6.22;1.05;;;;;;;;;;4832520;29;20049;-75
2023/07/12 01:21:33;;;;;;;3.33;1.05;;;;;;;;;;4799252;29;20054;-74
2023/07/12 01:24:06;;;;;;;2.92;0.57;;;;;;;;;;4797022;29;20077;-75
2023/07/12 01:26:42;;;;;;;1.50;0.60;;;;;;;;;;4813575;29;20542;-73
2023/07/12 01:29:14;;;;;;;3.03;0.68;;;;;;;;;;4813298;29;20045;-73
2023/07/12 01:31:45;;;;;;;3.85;0.68;;;;;;;;;;4812531;29;20050;-74
2023/07/12 01:34:17;;;;;;;1.15;0.60;;;;;;;;;;4813346;29;20058;-74
2023/07/12 01:36:48;;;;;;;2.50;0.70;;;;;;;;;;4813067;29;20051;-75
2023/07/12 01:39:20;;;;;;;2.80;0.70;;;;;;;;;;4814129;29;20061;-73
2023/07/12 01:41:50;;;;;;;2.95;0.50;;;;;;;;;;4813920;29;20058;-74
2023/07/12 01:44:21;;;;;;;1.23;0.50;;;;;;;;;;4813701;29;20046;-73
2023/07/12 01:46:54;;;;;;;5.10;0.80;;;;;;;;;;4813205;29;20192;-73
2023/07/12 01:49:27;;;;;;;2.13;0.52;;;;;;;;;;4814268;29;20062;-75
2023/07/12 01:51:57;;;;;;;3.05;0.90;;;;;;;;;;4813947;29;20053;-75
2023/07/12 01:54:28;;;;;;;1.35;0.43;;;;;;;;;;4813909;29;20061;-74
2023/07/12 01:56:58;;;;;;;1.90;0.45;;;;;;;;;;4797376;29;20062;-74
2023/07/12 01:59:30;;;;;;;5.15;0.70;;;;;;;;;;4796887;29;20054;-75
2023/07/12 02:02:00;;;;;;;0.95;0.43;;;;;;;;;;4814286;29;20062;-74
2023/07/12 02:04:31;;;;;;;4.13;0.70;;;;;;;;;;4797064;29;20061;-75
2023/07/12 02:07:03;;;;;;;3.88;0.70;;;;;;;;;;4797287;29;20050;-74
2023/07/12 02:09:41;;;;;;;2.97;0.60;;;;;;;;;;4813703;29;20061;-75
2023/07/12 02:12:12;;;;;;;0.95;0.60;;;;;;;;;;4796605;29;20423;-75
2023/07/12 02:14:42;;;;;;;2.42;0.90;;;;;;;;;;4813635;29;20423;-74
2023/07/12 02:17:16;;;;;;;2.25;1.33;;;;;;;;;;4813687;29;20066;-75
2023/07/12 02:19:47;;;;;;;6.90;0.88;;;;;;;;;;4796257;29;20062;-74
2023/07/12 02:22:19;;;;;;;0.90;0.43;;;;;;;;;;4813432;29;20531;-74
2023/07/12 02:24:50;;;;;;;2.60;0.45;;;;;;;;;;4796431;29;20519;-76
2023/07/12 02:27:20;;;;;;;1.45;0.80;;;;;;;;;;4817795;29;20050;-75
2023/07/12 02:29:51;;;;;;;3.05;0.70;;;;;;;;;;4819963;29;20396;-75
2023/07/12 02:32:22;;;;;;;1.10;0.47;;;;;;;;;;4820024;29;20054;-74
2023/07/12 02:34:54;;;;;;;1.67;0.57;;;;;;;;;;4803110;29;20062;-74
2023/07/12 02:37:27;;;;;;;1.70;0.65;;;;;;;;;;4819824;29;20050;-75
2023/07/12 02:39:58;;;;;;;4.53;0.90;;;;;;;;;;4819603;29;20510;-74
2023/07/12 02:42:29;;;;;;;2.38;0.50;;;;;;;;;;4803131;29;20058;-74
2023/07/12 02:45:00;;;;;;;1.95;0.52;;;;;;;;;;4818923;29;20144;-74
2023/07/12 02:47:31;;;;;;;1.58;0.40;;;;;;;;;;4819284;29;20515;-72
2023/07/12 02:50:05;;;;;;;3.20;0.50;;;;;;;;;;4803748;29;20065;-75
2023/07/12 02:52:35;;;;;;;2.70;0.50;;;;;;;;;;4819394;29;20061;-75
2023/07/12 02:55:06;;;;;;;1.50;0.52;;;;;;;;;;4803659;29;20532;-76
2023/07/12 02:57:36;;;;;;;2.08;0.40;;;;;;;;;;4819257;29;20511;-75
2023/07/12 03:00:08;;;;;;;4.28;0.55;;;;;;;;;;4819163;29;20054;-75
2023/07/12 03:02:39;;;;;;;2.53;0.35;;;;;;;;;;4803191;29;20070;-75
2023/07/12 03:05:09;;;;;;;2.20;0.45;;;;;;;;;;4820119;29;20053;-76
2023/07/12 03:07:40;;;;;;;1.33;0.22;;;;;;;;;;4819791;29;20054;-74
2023/07/12 03:10:12;;;;;;;0.98;0.57;;;;;;;;;;4802819;29;20069;-76
2023/07/12 03:12:42;;;;;;;1.27;0.43;;;;;;;;;;4818885;29;20424;-74
2023/07/12 03:15:12;;;;;;;3.38;0.47;;;;;;;;;;4819352;29;20061;-78
2023/07/12 03:17:43;;;;;;;1.02;0.52;;;;;;;;;;4803491;29;20050;-75
2023/07/12 03:20:14;;;;;;;3.28;0.40;;;;;;;;;;4818804;29;20062;-75
2023/07/12 03:22:44;;;;;;;2.40;0.40;;;;;;;;;;4819473;29;20061;-75
2023/07/12 03:25:15;;;;;;;0.20;0.20;;;;;;;;;;4819278;29;20066;-75
2023/07/12 03:27:47;;;;;;;2.00;0.40;;;;;;;;;;4819023;29;20066;-75
2023/07/12 03:30:18;;;;;;;0.73;0.20;;;;;;;;;;4818749;29;20059;-75
2023/07/12 03:32:48;;;;;;;1.27;0.45;;;;;;;;;;4818942;29;20081;-76
2023/07/12 03:35:20;;;;;;;1.90;0.20;;;;;;;;;;4819174;29;20544;-75
2023/07/12 03:37:50;;;;;;;2.00;0.17;;;;;;;;;;4818613;29;20046;-74
2023/07/12 03:40:23;;;;;;;3.28;0.40;;;;;;;;;;4818504;29;20062;-77
2023/07/12 03:42:53;;;;;;;0.80;0.40;;;;;;;;;;4818848;29;20081;-77
2023/07/12 03:45:23;;;;;;;3.75;0.43;;;;;;;;;;4818691;29;20054;-76
2023/07/12 03:47:55;;;;;;;2.72;0.43;;;;;;;;;;4818541;29;20057;-76
2023/07/12 03:50:27;;;;;;;0.55;0.38;;;;;;;;;;4818704;29;20514;-75
2023/07/12 03:52:57;;;;;;;1.15;0.30;;;;;;;;;;4818493;29;20062;-75
2023/07/12 03:55:28;;;;;;;0.82;0.40;;;;;;;;;;4818626;29;20535;-75
2023/07/12 03:57:58;;;;;;;1.83;0.32;;;;;;;;;;4818707;29;20061;-74
2023/07/12 04:00:30;;;;;;;0.85;0.40;;;;;;;;;;4818199;29;20083;-75
2023/07/12 04:03:00;;;;;;;3.78;0.40;;;;;;;;;;4802314;29;20414;-75
2023/07/12 04:05:30;;;;;;;1.08;0.20;;;;;;;;;;4818018;29;20050;-74
2023/07/12 04:08:02;;;;;;;2.20;0.50;;;;;;;;;;4818285;29;20514;-75
2023/07/12 04:10:35;;;;;;;2.35;0.43;;;;;;;;;;4817984;29;20058;-75
2023/07/12 04:13:05;;;;;;;0.43;0.20;;;;;;;;;;4817992;29;20503;-75
2023/07/12 04:15:36;;;;;;;3.55;0.45;;;;;;;;;;4818637;29;20054;-74
2023/07/12 04:18:07;;;;;;;0.65;0.30;;;;;;;;;;4817596;29;20047;-75
2023/07/12 04:20:41;;;;;;;0.40;0.30;;;;;;;;;;4817753;29;20050;-76
2023/07/12 04:23:11;;;;;;;0.40;0.30;;;;;;;;;;4817478;29;20061;-75
2023/07/12 04:25:42;;;;;;;1.98;0.40;;;;;;;;;;4818242;29;20074;-75
2023/07/12 04:28:13;;;;;;;1.65;0.50;;;;;;;;;;4817950;29;20061;-75
2023/07/12 04:30:45;;;;;;;2.83;0.30;;;;;;;;;;4818685;29;20061;-76
2023/07/12 04:33:16;;;;;;;1.83;0.20;;;;;;;;;;4817599;29;20049;-76
2023/07/12 04:35:45;;;;;;;1.70;0.40;;;;;;;;;;4817774;29;20050;-75
2023/07/12 04:38:16;;;;;;;2.67;0.50;;;;;;;;;;4817989;29;20518;-76
2023/07/12 04:40:57;;;;;;;2.33;0.50;;;;;;;;;;4801107;29;20070;-76
2023/07/12 04:43:27;;;;;;;0.82;0.45;;;;;;;;;;4817854;29;20523;-75
2023/07/12 04:46:00;;;;;;;2.15;0.22;;;;;;;;;;4818120;29;20053;-75
2023/07/12 04:48:31;;;;;;;3.08;0.60;;;;;;;;;;4817738;29;20058;-76
2023/07/12 04:51:03;;;;;;;1.42;0.50;;;;;;;;;;4817568;29;20396;-76
2023/07/12 04:53:34;;;;;;;3.55;0.45;;;;;;;;;;4817591;29;20545;-75
2023/07/12 04:56:04;;;;;;;1.80;0.40;;;;;;;;;;4817738;29;20065;-75
2023/07/12 04:58:34;;;;;;;0.45;0.35;;;;;;;;;;4817452;29;20065;-75
2023/07/12 05:01:05;;;;;;;1.35;0.38;;;;;;;;;;4817203;29;20054;-75
2023/07/12 05:03:37;;;;;;;2.97;0.40;;;;;;;;;;4817731;29;20083;-76
2023/07/12 05:06:07;;;;;;;1.05;0.45;;;;;;;;;;4817778;29;20059;-76
2023/07/12 05:08:52;;;;;;;1.33;0.47;;;;;;;;;;4816981;29;20423;-75
2023/07/12 05:11:23;;;;;;;0.30;0.30;;;;;;;;;;4816983;29;20514;-75
2023/07/12 05:13:54;;;;;;;1.77;0.57;;;;;;;;;;4816842;29;20392;-75
2023/07/12 05:16:24;;;;;;;1.65;0.52;;;;;;;;;;4816996;29;20050;-75
2023/07/12 05:18:55;;;;;;;2.47;0.28;;;;;;;;;;4817180;29;20495;-75
2023/07/12 05:21:27;;;;;;;1.10;0.40;;;;;;;;;;4817374;29;20057;-75
2023/07/12 05:23:58;;;;;;;0.45;0.30;;;;;;;;;;4816677;29;20062;-75
2023/07/12 05:26:30;;;;;;;0.80;0.30;;;;;;;;;;4816227;29;20518;-75
2023/07/12 05:29:00;;;;;;;1.10;0.32;;;;;;;;;;4816894;29;20558;-74
2023/07/12 05:31:31;;;;;;;0.73;0.30;;;;;;;;;;4816837;29;20064;-75
2023/07/12 05:34:03;;;;;;;1.15;0.40;;;;;;;;;;4816660;29;20534;-75
2023/07/12 05:36:35;;;;;;;4.78;0.73;;;;;;;;;;4817157;29;20857;-75
2023/07/12 05:39:05;;;;;;;1.30;0.32;;;;;;;;;;4816390;29;20062;-74
2023/07/12 05:41:36;;;;;;;0.40;0.30;;;;;;;;;;4816989;29;20050;-75
2023/07/12 05:44:07;;;;;;;1.02;0.30;;;;;;;;;;4816515;29;20515;-75
2023/07/12 05:46:44;;;;;;;0.93;0.20;;;;;;;;;;4801174;29;20507;-74
2023/07/12 05:49:14;;;;;;;2.25;0.40;;;;;;;;;;4816543;29;20050;-75
2023/07/12 05:51:45;;;;;;;0.80;0.30;;;;;;;;;;4800542;29;20054;-75
2023/07/12 05:54:16;;;;;;;0.40;0.40;;;;;;;;;;4816749;29;20065;-75
2023/07/12 05:56:48;;;;;;;1.10;0.47;;;;;;;;;;4816966;29;20057;-75
2023/07/12 05:59:21;;;;;;;1.92;0.40;;;;;;;;;;4816354;29;20058;-75
2023/07/12 06:01:52;;;;;;;1.23;0.82;;;;;;;;;;4815569;29;20053;-75
2023/07/12 06:04:24;;;;;;;1.45;0.20;;;;;;;;;;4816380;29;20069;-75
2023/07/12 06:06:55;;;;;;;0.68;0.40;;;;;;;;;;4816148;29;20057;-75
2023/07/12 06:09:25;;;;;;;1.15;0.50;;;;;;;;;;4816342;29;20514;-75
2023/07/12 06:11:55;;;;;;;0.05;0.05;;;;;;;;;;4816657;29;20053;-76
2023/07/12 06:14:25;;;;;;;1.35;0.38;;;;;;;;;;4816788;29;20050;-75
2023/07/12 06:16:55;;;;;;;0.93;0.43;;;;;;;;;;4816333;29;20067;-75
2023/07/12 06:19:26;;;;;;;0.80;0.25;;;;;;;;;;4815859;29;20054;-76
2023/07/12 06:21:56;;;;;;;0.65;0.32;;;;;;;;;;4816129;29;20055;-75
2023/07/12 06:24:27;;;;;;;0.30;0.20;;;;;;;;;;4816678;29;20519;-75
2023/07/12 06:26:57;;;;;;;0.20;0.20;;;;;;;;;;4816764;29;20046;-77
2023/07/12 06:29:30;;;;;;;0.85;0.30;;;;;;;;;;4816051;29;20062;-75
2023/07/12 06:32:00;;;;;;;2.05;0.90;;;;;;;;;;4816250;29;20053;-75
2023/07/12 06:34:30;;;;;;;0.80;0.22;;;;;;;;;;4816216;29;20077;-75
2023/07/12 06:37:00;;;;;;;2.47;0.50;;;;;;;;;;4816364;29;20522;-75
2023/07/12 06:39:36;;;;;;;3.33;0.63;;;;;;;;;;4816216;29;20069;-74
2023/07/12 06:42:07;;;;;;;1.88;0.32;;;;;;;;;;4816178;29;20054;-74
2023/07/12 06:44:39;;;;;;;1.90;0.40;;;;;;;;;;4815759;29;20062;-74
2023/07/12 06:47:09;;;;;;;2.42;0.50;;;;;;;;;;4815812;29;20058;-74
2023/07/12 06:49:40;;;;;;;1.05;0.35;;;;;;;;;;4815783;29;20101;-75
2023/07/12 06:52:10;;;;;;;1.30;0.50;;;;;;;;;;4799980;29;20442;-75
2023/07/12 06:54:40;;;;;;;2.15;0.28;;;;;;;;;;4815499;29;20059;-75
2023/07/12 06:57:11;;;;;;;0.88;0.28;;;;;;;;;;4816606;29;20522;-75
2023/07/12 06:59:42;;;;;;;0.40;0.20;;;;;;;;;;4815831;29;20054;-75
2023/07/12 07:02:14;;;;;;;1.40;0.45;;;;;;;;;;4815704;29;20081;-73
2023/07/12 07:04:45;;;;;;;3.50;0.47;;;;;;;;;;4816012;29;20149;-75
2023/07/12 07:07:15;;;;;;;3.38;0.40;;;;;;;;;;4815780;29;20085;-74
2023/07/12 07:09:45;;;;;;;1.48;0.32;;;;;;;;;;4816274;29;20054;-74
2023/07/12 07:12:16;;;;;;;0.30;0.25;;;;;;;;;;4816316;29;20047;-74
2023/07/12 07:14:46;;;;;;;1.73;0.25;;;;;;;;;;4802574;29;20054;-74
2023/07/12 07:17:17;;;;;;;1.08;0.30;;;;;;;;;;4819342;29;20058;-75
2023/07/12 07:19:47;;;;;;;0.45;0.30;;;;;;;;;;4819286;29;20061;-74
2023/07/12 07:22:17;;;;;;;2.63;0.40;;;;;;;;;;4802536;29;20058;-74
2023/07/12 07:24:48;;;;;;;0.60;0.30;;;;;;;;;;4818566;29;20069;-74
2023/07/12 07:27:20;;;;;;;1.42;0.30;;;;;;;;;;4818482;29;20399;-74
2023/07/12 07:29:50;;;;;;;0.52;0.32;;;;;;;;;;4819151;29;20073;-74
2023/07/12 07:32:21;;;;;;;1.70;0.30;;;;;;;;;;4819003;29;20054;-75
2023/07/12 07:34:52;;;;;;;0.70;0.50;;;;;;;;;;4819033;29;20050;-74
2023/07/12 07:37:22;;;;;;;1.25;0.22;;;;;;;;;;4818680;29;20073;-74
2023/07/12 07:39:53;;;;;;;3.25;0.45;;;;;;;;;;4818617;29;20065;-74
2023/07/12 07:42:23;;;;;;;2.95;0.55;;;;;;;;;;4818405;29;20058;-75
2023/07/12 07:44:53;;;;;;;2.20;0.30;;;;;;;;;;4818827;29;20063;-74
2023/07/12 07:47:23;;;;;;;0.75;0.15;;;;;;;;;;4818347;29;20057;-74
2023/07/12 07:49:54;;;;;;;2.65;0.20;;;;;;;;;;4818498;29;20057;-75
2023/07/12 07:52:24;;;;;;;0.82;0.10;;;;;;;;;;4802886;29;20066;-74
2023/07/12 07:54:54;;;;;;;1.38;0.28;;;;;;;;;;4801756;29;20082;-75
2023/07/12 07:57:25;;;;;;;1.40;0.20;;;;;;;;;;4802650;29;20066;-74
2023/07/12 07:59:55;;;;;;;2.33;0.38;;;;;;;;;;4818182;29;20054;-74
2023/07/12 08:02:27;;;;;;;0.10;0.05;;;;;;;;;;4801518;29;20073;-75
2023/07/12 08:04:59;;;;;;;1.02;0.20;;;;;;;;;;4802775;29;20058;-74
2023/07/12 08:07:30;;;;;;;0.32;0.15;;;;;;;;;;4818589;29;20057;-75
2023/07/12 08:10:00;;;;;;;0.15;0.15;;;;;;;;;;4818089;29;20058;-75
2023/07/12 08:12:30;;;;;;;0.25;0.17;;;;;;;;;;4818080;29;20046;-75
2023/07/12 08:15:01;;;;;;;0.30;0.30;;;;;;;;;;4818140;29;20057;-75
2023/07/12 08:17:32;;;;;;;1.70;0.40;;;;;;;;;;4818221;29;20077;-74
2023/07/12 08:20:04;;;;;;;1.10;0.20;;;;;;;;;;4818203;29;20086;-75
2023/07/12 08:22:34;;;;;;;1.27;0.30;;;;;;;;;;4818380;29;20061;-75
2023/07/12 08:25:05;;;;;;;1.20;0.20;;;;;;;;;;4817626;29;20058;-76
2023/07/12 08:27:36;;;;;;;1.88;0.30;;;;;;;;;;4818071;29;20061;-77
2023/07/12 08:30:07;;;;;;;1.45;0.30;;;;;;;;;;4818196;29;20053;-75
2023/07/12 08:32:37;;;;;;;0.50;0.50;;;;;;;;;;4817832;29;20444;-75
2023/07/12 08:35:11;;;;;;;1.10;0.22;;;;;;;;;;4817610;29;20058;-75
2023/07/12 08:37:43;;;;;;;1.63;0.47;;;;;;;;;;4817596;29;20069;-74
2023/07/12 08:40:14;;;;;;;2.40;0.20;;;;;;;;;;4817606;29;20073;-75
2023/07/12 08:42:47;;;;;;;0.98;0.20;;;;;;;;;;4818007;29;20057;-74
2023/07/12 08:45:28;;;;;;;0.40;0.40;;;;;;;;;;4817695;29;20062;-75
2023/07/12 08:48:08;;;;;;;1.17;0.50;;;;;;;;;;4817165;29;20058;-75
2023/07/12 08:50:41;;;;;;;2.10;0.40;;;;;;;;;;4817735;29;20521;-76
2023/07/12 08:53:16;;;;;;;1.23;0.45;;;;;;;;;;4817853;29;20046;-75
2023/07/12 08:55:47;;;;;;;2.00;0.30;;;;;;;;;;4817718;29;20050;-74
2023/07/12 08:58:24;;;;;;;0.57;0.30;;;;;;;;;;4817147;29;20058;-74
2023/07/12 09:01:03;;;;;;;1.30;0.30;;;;;;;;;;4817870;29;20062;-76
2023/07/12 09:03:34;;;;;;;0.35;0.20;;;;;;;;;;4817109;29;20529;-75
2023/07/12 09:06:13;;;;;;;0.68;0.20;;;;;;;;;;4801381;29;20050;-75
2023/07/12 09:08:49;;;;;;;0.93;0.30;;;;;;;;;;4800409;29;20077;-75
2023/07/12 09:11:26;;;;;;;2.72;0.50;;;;;;;;;;4817180;29;20049;-74
2023/07/12 09:13:58;;;;;;;1.35;0.40;;;;;;;;;;4817344;29;20426;-75
2023/07/12 09:16:33;;;;;;;0.90;0.20;;;;;;;;;;4817292;29;20077;-76
2023/07/12 09:19:27;;;;;;;0.40;0.20;;;;;;;;;;4817079;29;20058;-74
2023/07/12 09:22:07;;;;;;;1.23;0.20;;;;;;;;;;4817023;29;20054;-75
2023/07/12 09:24:43;;;;;;;0.80;0.20;;;;;;;;;;4817167;29;20066;-75
2023/07/12 09:27:23;;;;;;;0.85;0.20;;;;;;;;;;4800944;29;20073;-75
2023/07/12 09:30:04;;;;;;;0.20;0.15;;;;;;;;;;4817248;29;20054;-74
2023/07/12 09:32:36;;;;;;;0.63;0.20;;;;;;;;;;4817637;29;20061;-75
2023/07/12 09:35:24;;;;;;;0.22;0.17;;;;;;;;;;4816819;29;20062;-75
2023/07/12 09:38:00;;;;;;;0.28;0.20;;;;;;;;;;4816568;29;20061;-75
2023/07/12 09:40:37;;;;;;;;;;;;;;;;;;4817248;29;20521;-75
2023/07/12 09:43:22;;;;;;;5.18;0.45;;;;;;;;;;4816866;29;19933;-74
2023/07/12 09:45:52;;;;;;;2.38;0.77;;;;;;;;;;4817044;29;20054;-77
2023/07/12 09:49:12;;;;;;;2.45;0.80;;;;;;;;;;4803270;29;20133;-77
2023/07/12 09:52:17;;;;;;;8.00;1.15;;;;;;;;;;4759440;29;20073;-77
2023/07/12 09:55:36;;;;;;;6.93;1.10;;;;;;;;;;4820046;29;20046;-73
2023/07/12 09:58:16;;;;;;;3.70;0.77;;;;;;;;;;4746683;30;20245;-74
2023/07/12 10:00:58;;;;;;;0.73;0.30;;;;;;;;;;4813419;29;20073;-75
2023/07/12 10:03:37;;;;;;;4.13;0.50;;;;;;;;;;4819510;29;20168;-75
2023/07/12 10:06:32;;;;;;;1.55;0.63;;;;;;;;;;4823142;29;20070;-74
2023/07/12 10:09:09;;;;;;;1.08;0.20;;;;;;;;;;4819382;29;20054;-76
2023/07/12 10:12:14;;;;;;;1.75;0.28;;;;;;;;;;4803379;29;20050;-76
2023/07/12 10:14:48;;;;;;;4.03;0.30;;;;;;;;;;4799479;29;20077;-74
2023/07/12 10:17:31;;;;;;;3.20;0.32;;;;;;;;;;4801788;29;20051;-75
2023/07/12 10:20:02;;;;;;;0.50;0.15;;;;;;;;;;4827908;29;20057;-75
2023/07/12 10:22:34;;;;;;;1.05;0.10;;;;;;;;;;4818322;29;20522;-76
2023/07/12 10:25:21;;;;;;;0.13;0.10;;;;;;;;;;4834052;29;20519;-76
2023/07/12 10:28:19;;;;;;;0.10;0.10;;;;;;;;;;4833203;29;20050;-75
2023/07/12 10:30:52;;;;;;;3.75;0.43;;;;;;;;;;4831078;29;20672;-74
2023/07/12 10:33:36;;;;;;;4.03;0.28;;;;;;;;;;4834007;29;20049;-79
2023/07/12 10:36:24;;;;;;;0.38;0.22;;;;;;;;;;4835322;29;20426;-78
2023/07/12 10:38:54;;;;;;;0.55;0.50;;;;;;;;;;4834476;29;20054;-77
2023/07/12 10:41:42;;;;;;;3.03;0.25;;;;;;;;;;4835575;29;20506;-76
2023/07/12 10:44:31;;;;;;;1.08;0.17;;;;;;;;;;4835431;29;20054;-75
2023/07/12 10:47:07;;;;;;;0.47;0.17;;;;;;;;;;4836680;29;20498;-76
2023/07/12 10:49:46;;;;;;;0.03;0.03;;;;;;;;;;4842854;29;20053;-76
2023/07/12 10:52:29;;;;;;;0.88;0.17;;;;;;;;;;4826896;29;20057;-78
2023/07/12 10:55:15;;;;;;;4.68;1.73;;;;;;;;;;4842531;29;20061;-78
2023/07/12 10:57:50;;;;;;;3.88;0.30;;;;;;;;;;4840751;29;20045;-75
2023/07/12 11:00:27;;;;;;;3.22;0.32;;;;;;;;;;4842198;29;20505;-75
2023/07/12 11:03:09;;;;;;;0.38;0.30;;;;;;;;;;4839181;29;20433;-76
2023/07/12 11:05:41;;;;;;;1.55;0.38;;;;;;;;;;4840636;29;20049;-76
2023/07/12 11:08:35;;;;;;;0.43;0.22;;;;;;;;;;4841090;29;20065;-74
2023/07/12 11:11:09;;;;;;;2.13;0.50;;;;;;;;;;4833851;29;20050;-76
2023/07/12 11:13:45;;;;;;;1.20;0.40;;;;;;;;;;4837509;29;20441;-75
2023/07/12 11:16:18;;;;;;;2.60;0.30;;;;;;;;;;4837266;29;20067;-75
2023/07/12 11:18:56;;;;;;;0.30;0.30;;;;;;;;;;4817314;29;20057;-75
2023/07/12 11:21:55;;;;;;;0.20;0.20;;;;;;;;;;4837445;29;20058;-75
2023/07/12 11:24:29;;;;;;;0.47;0.30;;;;;;;;;;4793989;29;20835;-75
2023/07/12 11:27:01;;;;;;;0.68;0.28;;;;;;;;;;4784193;30;20059;-77
2023/07/12 11:29:35;;;;;;;0.17;0.13;;;;;;;;;;4783348;29;20070;-76
2023/07/12 11:32:14;;;;;;;0.57;0.20;;;;;;;;;;4766520;30;20555;-75
2023/07/12 11:34:47;;;;;;;1.00;0.50;;;;;;;;;;4782473;30;20137;-76
2023/07/12 11:37:34;;;;;;;1.02;0.50;;;;;;;;;;4782422;30;20420;-79
2023/07/12 11:40:25;;;;;;;0.17;0.17;;;;;;;;;;4766492;30;20082;-78
2023/07/12 11:42:56;;;;;;;0.63;0.30;;;;;;;;;;4782840;30;20052;-76
2023/07/12 11:45:26;;;;;;;1.88;0.32;;;;;;;;;;4766859;30;20051;-77
2023/07/12 11:47:57;;;;;;;1.65;0.40;;;;;;;;;;4782182;30;20075;-76
2023/07/12 11:50:30;;;;;;;1.15;0.60;;;;;;;;;;4782610;30;20435;-77
2023/07/12 11:53:03;;;;;;;0.93;0.35;;;;;;;;;;4782844;30;20047;-76
2023/07/12 11:55:35;;;;;;;1.00;0.43;;;;;;;;;;4782520;30;20054;-77
2023/07/12 11:58:20;;;;;;;1.67;1.02;;;;;;;;;;4782188;29;20063;-76
2023/07/12 12:00:56;;;;;;;2.38;0.60;;;;;;;;;;4766075;30;20062;-77
2023/07/12 12:03:27;;;;;;;4.45;0.90;;;;;;;;;;4782823;30;20059;-78
2023/07/12 12:05:59;;;;;;;2.75;0.60;;;;;;;;;;4782106;30;20059;-77
2023/07/12 12:08:32;;;;;;;2.25;0.82;;;;;;;;;;4782408;30;20062;-75
2023/07/12 12:11:02;;;;;;;1.95;0.57;;;;;;;;;;4782436;30;20062;-75
2023/07/12 12:13:33;;;;;;;0.90;0.40;;;;;;;;;;4781908;30;20051;-75
2023/07/12 12:16:06;;;;;;;4.43;0.55;;;;;;;;;;4782186;30;20055;-77
2023/07/12 12:18:37;;;;;;;0.98;0.60;;;;;;;;;;4782006;30;20385;-76
2023/07/12 12:21:17;;;;;;;0.50;0.50;;;;;;;;;;4781845;30;20079;-75
2023/07/12 12:23:58;;;;;;;2.72;1.20;;;;;;;;;;4784988;29;20806;-76
2023/07/12 12:26:32;;;;;;;4.20;1.92;;;;;;;;;;4799527;29;20054;-75
2023/07/12 12:29:20;;;;;;;6.75;2.45;;;;;;;;;;4799590;29;20078;-74
2023/07/12 12:31:58;;;;;;;5.70;2.42;;;;;;;;;;4799983;29;20054;-76
2023/07/12 12:34:43;;;;;;;2.78;1.15;;;;;;;;;;4783716;29;20058;-76
2023/07/12 12:37:18;;;;;;;1.15;0.47;;;;;;;;;;4799554;29;20046;-75
2023/07/12 12:40:16;;;;;;;1.55;0.80;;;;;;;;;;4799845;29;20079;-76
2023/07/12 12:43:01;;;;;;;6.10;2.92;;;;;;;;;;4799922;29;20534;-78
2023/07/12 12:45:37;;;;;;;1.95;1.30;;;;;;;;;;4799416;29;20055;-77
2023/07/12 12:48:14;;;;;;;1.45;1.10;;;;;;;;;;4799751;29;20054;-77
2023/07/12 12:50:52;;;;;;;2.33;1.05;;;;;;;;;;4799219;29;20047;-77
2023/07/12 12:53:46;;;;;;;2.65;1.35;;;;;;;;;;4799008;29;20050;-75
2023/07/12 12:56:29;;;;;;;1.45;1.27;;;;;;;;;;4799269;29;20059;-77
2023/07/12 12:59:05;;;;;;;2.38;0.90;;;;;;;;;;4784075;29;20046;-75
2023/07/12 13:01:39;;;;;;;1.92;1.55;;;;;;;;;;4799384;29;20415;-75
2023/07/12 13:04:13;;;;;;;1.10;0.80;;;;;;;;;;4798994;29;20055;-76
2023/07/12 13:06:46;;;;;;;1.48;0.93;;;;;;;;;;4783955;29;20059;-74
2023/07/12 13:09:31;;;;;;;0.73;0.60;;;;;;;;;;4798762;29;20062;-76
2023/07/12 13:12:08;;;;;;;1.80;0.60;;;;;;;;;;4782092;29;20054;-76
2023/07/12 13:14:42;;;;;;;2.45;1.35;;;;;;;;;;4798693;29;20051;-76
2023/07/12 13:17:16;;;;;;;1.88;1.10;;;;;;;;;;4798719;29;20054;-76
2023/07/12 13:20:10;;;;;;;1.70;0.98;;;;;;;;;;4782942;29;20526;-75
2023/07/12 13:22:43;;;;;;;3.78;1.13;;;;;;;;;;4798398;29;20062;-75
2023/07/12 13:25:15;;;;;;;1.15;0.90;;;;;;;;;;4798167;29;20079;-74
2023/07/12 13:27:54;;;;;;;1.75;1.10;;;;;;;;;;4798702;29;20546;-75
2023/07/12 13:30:28;;;;;;;1.15;0.90;;;;;;;;;;4799153;29;20055;-77
2023/07/12 13:32:58;;;;;;;3.70;1.00;;;;;;;;;;4798819;29;20055;-75
2023/07/12 13:35:29;;;;;;;2.17;1.42;;;;;;;;;;4798998;29;20077;-75
2023/07/12 13:38:02;;;;;;;1.75;1.13;;;;;;;;;;4798838;29;20054;-75
2023/07/12 13:40:35;;;;;;;3.85;1.10;;;;;;;;;;4798951;29;20070;-75
2023/07/12 13:43:13;;;;;;;2.40;0.68;;;;;;;;;;4798073;29;20059;-76
2023/07/12 13:45:47;;;;;;;1.40;0.70;;;;;;;;;;4798143;29;20566;-75
2023/07/12 13:48:19;;;;;;;0.90;0.73;;;;;;;;;;4782399;29;20486;-81
2023/07/12 13:50:50;;;;;;;1.77;0.52;;;;;;;;;;4798860;29;20047;-76
2023/07/12 13:53:20;;;;;;;5.47;0.82;;;;;;;;;;4798598;29;20595;-75
2023/07/12 13:55:50;;;;;;;2.03;0.82;;;;;;;;;;4798424;29;20532;-77
2023/07/12 13:58:29;;;;;;;4.72;1.00;;;;;;;;;;4799039;29;20395;-75
2023/07/12 14:01:02;;;;;;;0.60;0.60;;;;;;;;;;4798327;29;20767;-77
2023/07/12 14:03:35;;;;;;;0.77;0.68;;;;;;;;;;4783420;29;20055;-76
2023/07/12 14:06:09;;;;;;;2.28;0.50;;;;;;;;;;4798419;29;20056;-77
2023/07/12 14:09:00;;;;;;;0.50;0.50;;;;;;;;;;4799376;29;20441;-76
2023/07/12 14:11:33;;;;;;;2.35;0.68;;;;;;;;;;4798910;29;20055;-75
2023/07/12 14:14:04;;;;;;;1.52;0.57;;;;;;;;;;4798150;29;20054;-77
2023/07/12 14:16:34;;;;;;;1.10;0.60;;;;;;;;;;4781907;29;20508;-76
2023/07/12 14:19:05;;;;;;;1.33;0.80;;;;;;;;;;4798815;29;20431;-79
2023/07/12 14:21:36;;;;;;;1.38;0.80;;;;;;;;;;4797442;29;20078;-82
2023/07/12 14:24:06;;;;;;;1.50;0.70;;;;;;;;;;4797908;29;20078;-75
2023/07/12 14:26:37;;;;;;;2.03;0.50;;;;;;;;;;4798391;29;20038;-76
2023/07/12 14:29:09;;;;;;;2.58;0.60;;;;;;;;;;4799107;29;20058;-75
2023/07/12 14:31:59;;;;;;;4.85;0.80;;;;;;;;;;4797478;29;20057;-76
2023/07/12 14:34:30;;;;;;;0.90;0.60;;;;;;;;;;4798000;29;20066;-76
2023/07/12 14:36:59;;;;;;;1.83;0.70;;;;;;;;;;4798455;29;20058;-76
2023/07/12 14:39:30;;;;;;;5.50;1.30;;;;;;;;;;4798506;29;20395;-76
2023/07/12 14:42:01;;;;;;;6.38;1.13;;;;;;;;;;4798333;29;20511;-77
2023/07/12 14:44:31;;;;;;;3.10;0.80;;;;;;;;;;4796908;29;20063;-75
2023/07/12 14:47:04;;;;;;;2.72;0.77;;;;;;;;;;4797610;29;20058;-74
2023/07/12 14:49:37;;;;;;;4.47;0.93;;;;;;;;;;4797347;29;20074;-75
2023/07/12 14:52:21;;;;;;;5.03;0.80;;;;;;;;;;4798244;29;20058;-75
2023/07/12 14:54:53;;;;;;;2.30;1.08;;;;;;;;;;4798667;29;20051;-75
2023/07/12 14:57:28;;;;;;;3.50;1.10;;;;;;;;;;4798755;29;20562;-76
2023/07/12 15:00:19;;;;;;;2.85;1.23;;;;;;;;;;4797902;29;20051;-75
2023/07/12 15:02:54;;;;;;;3.35;0.75;;;;;;;;;;4797939;29;20054;-75
2023/07/12 15:05:26;;;;;;;7.72;1.20;;;;;;;;;;4798290;29;20059;-76
2023/07/12 15:07:57;;;;;;;2.88;1.08;;;;;;;;;;4797580;29;20519;-76
2023/07/12 15:10:27;;;;;;;2.42;1.45;;;;;;;;;;4798120;29;20054;-75
2023/07/12 15:13:02;;;;;;;2.83;1.80;;;;;;;;;;4797960;29;20058;-75
2023/07/12 15:15:32;;;;;;;5.25;2.00;;;;;;;;;;4797102;29;20438;-76
2023/07/12 15:18:14;;;;;;;3.97;1.85;;;;;;;;;;4797263;29;20047;-75
2023/07/12 15:20:55;;;;;;;2.40;1.10;;;;;;;;;;4797403;29;20055;-75
2023/07/12 15:23:31;;;;;;;3.35;1.20;;;;;;;;;;4780649;29;20063;-75
2023/07/12 15:26:02;;;;;;;3.80;1.15;;;;;;;;;;4797196;29;20062;-75